createdAt,value
2023-02-12T00:02:18.461Z,100.00
2023-02-12T00:04:47.608Z,100.00
2023-02-12T00:07:14.782Z,100.00
2023-02-12T00:09:41.708Z,100.00
2023-02-12T00:12:09.361Z,100.00
2023-02-12T00:14:39.321Z,100.00
2023-02-12T00:17:06.476Z,100.00
2023-02-12T00:19:33.358Z,100.00
2023-02-12T00:22:00.583Z,100.00
2023-02-12T00:24:27.974Z,100.00
2023-02-12T00:26:55.200Z,100.00
2023-02-12T00:29:22.209Z,100.00
2023-02-12T00:31:49.450Z,100.00
2023-02-12T00:34:16.351Z,100.00
2023-02-12T00:36:43.640Z,100.00
2023-02-12T00:39:10.694Z,100.00
2023-02-12T00:41:38.067Z,100.00
2023-02-12T00:44:05.067Z,100.00
2023-02-12T00:46:35.275Z,100.00
2023-02-12T00:49:02.235Z,100.00
2023-02-12T00:51:31.806Z,100.00
2023-02-12T00:54:01.710Z,100.00
2023-02-12T00:56:31.375Z,100.00
2023-02-12T00:58:58.305Z,100.00
2023-02-12T01:01:25.619Z,100.00
2023-02-12T01:03:52.649Z,100.00
2023-02-12T01:06:20.012Z,100.00
2023-02-12T01:08:50.028Z,100.00
2023-02-12T01:11:17.610Z,100.00
2023-02-12T01:13:44.549Z,100.00
2023-02-12T01:16:14.892Z,100.00
2023-02-12T01:18:41.931Z,100.00
2023-02-12T01:21:10.833Z,100.00
2023-02-12T01:23:37.933Z,100.00
2023-02-12T01:26:05.223Z,100.00
2023-02-12T01:28:32.189Z,100.00
2023-02-12T01:30:59.553Z,100.00
2023-02-12T01:33:27.132Z,100.00
2023-02-12T01:35:55.551Z,100.00
2023-02-12T01:38:22.847Z,100.00
2023-02-12T01:40:50.007Z,100.00
2023-02-12T01:43:16.874Z,100.00
2023-02-12T01:45:46.976Z,100.00
2023-02-12T01:48:14.992Z,100.00
2023-02-12T01:50:43.950Z,100.00
2023-02-12T01:53:19.993Z,100.00
2023-02-12T01:55:48.663Z,100.00
2023-02-12T01:58:16.055Z,100.00
2023-02-12T02:00:43.644Z,100.00
2023-02-12T02:03:10.758Z,100.00
2023-02-12T02:05:56.660Z,100.00
2023-02-12T02:08:23.843Z,100.00
2023-02-12T02:10:51.267Z,100.00
2023-02-12T02:13:37.680Z,100.00
2023-02-12T02:16:14.563Z,100.00
2023-02-12T02:18:52.259Z,100.00
2023-02-12T02:21:31.370Z,100.00
2023-02-12T02:24:10.396Z,100.00
2023-02-12T02:26:40.618Z,100.00
2023-02-12T02:29:10.664Z,100.00
2023-02-12T02:31:50.172Z,100.00
2023-02-12T02:34:36.926Z,100.00
2023-02-12T02:37:16.425Z,100.00
2023-02-12T02:39:59.752Z,100.00
2023-02-12T02:42:33.042Z,100.00
2023-02-12T02:45:04.240Z,100.00
2023-02-12T02:47:38.274Z,100.00
2023-02-12T02:50:14.290Z,100.00
2023-02-12T02:52:47.760Z,100.00
2023-02-12T02:55:17.721Z,100.00
2023-02-12T02:57:48.034Z,100.00
2023-02-12T03:00:18.536Z,100.00
2023-02-12T03:02:50.269Z,100.00
2023-02-12T03:05:22.753Z,100.00
2023-02-12T03:07:57.293Z,100.00
2023-02-12T03:10:26.636Z,100.00
2023-02-12T03:13:00.848Z,100.00
2023-02-12T03:15:33.250Z,100.00
2023-02-12T03:18:03.941Z,100.00
2023-02-12T03:20:33.458Z,100.00
2023-02-12T03:23:09.951Z,100.00
2023-02-12T03:26:03.135Z,100.00
2023-02-12T03:28:32.080Z,100.00
2023-02-12T03:31:02.009Z,100.00
2023-02-12T03:33:39.876Z,100.00
2023-02-12T03:36:25.571Z,100.00
2023-02-12T03:38:54.393Z,100.00
2023-02-12T03:41:44.252Z,100.00
2023-02-12T03:44:30.214Z,100.00
2023-02-12T03:47:16.211Z,100.00
2023-02-12T03:49:51.243Z,100.00
2023-02-12T03:52:18.110Z,100.00
2023-02-12T03:54:48.468Z,100.00
2023-02-12T03:57:25.158Z,100.00
2023-02-12T03:59:52.478Z,100.00
2023-02-12T04:02:19.672Z,100.00
2023-02-12T04:04:47.238Z,100.00
2023-02-12T04:07:14.540Z,100.00
2023-02-12T04:09:41.750Z,100.00
2023-02-12T04:12:15.386Z,100.00
2023-02-12T04:14:42.534Z,100.00
2023-02-12T04:17:22.182Z,100.00
2023-02-12T04:19:49.749Z,100.00
2023-02-12T04:22:45.432Z,100.00
2023-02-12T04:25:29.601Z,100.00
2023-02-12T04:28:19.537Z,100.00
2023-02-12T04:30:58.972Z,100.00
2023-02-12T04:33:28.773Z,100.00
2023-02-12T04:36:09.306Z,100.00
2023-02-12T04:38:38.894Z,100.00
2023-02-12T04:41:06.997Z,100.00
2023-02-12T04:43:36.876Z,100.00
2023-02-12T04:46:05.289Z,100.00
2023-02-12T04:48:32.266Z,100.00
2023-02-12T04:50:59.395Z,100.00
2023-02-12T04:53:26.356Z,100.00
2023-02-12T04:55:53.826Z,100.00
2023-02-12T04:58:20.851Z,100.00
2023-02-12T05:00:48.081Z,100.00
2023-02-12T05:03:14.958Z,100.00
2023-02-12T05:05:42.258Z,100.00
2023-02-12T05:08:11.966Z,100.00
2023-02-12T05:10:39.183Z,100.00
2023-02-12T05:13:06.176Z,100.00
2023-02-12T05:15:33.374Z,100.00
2023-02-12T05:18:00.251Z,100.00
2023-02-12T05:20:27.413Z,100.00
2023-02-12T05:22:54.369Z,100.00
2023-02-12T05:25:23.761Z,100.00
2023-02-12T05:27:50.618Z,100.00
2023-02-12T05:30:17.819Z,100.00
2023-02-12T05:32:44.688Z,100.00
2023-02-12T05:35:11.953Z,100.00
2023-02-12T05:37:38.828Z,100.00
2023-02-12T05:40:06.400Z,100.00
2023-02-12T05:42:33.241Z,100.00
2023-02-12T05:45:02.964Z,100.00
2023-02-12T05:47:30.208Z,100.00
2023-02-12T05:49:57.450Z,100.00
2023-02-12T05:52:24.331Z,100.00
2023-02-12T05:54:51.486Z,100.00
2023-02-12T05:57:18.339Z,100.00
2023-02-12T05:59:45.634Z,100.00
2023-02-12T06:02:12.638Z,100.00
2023-02-12T06:04:39.866Z,100.00
2023-02-12T06:07:07.389Z,100.00
2023-02-12T06:09:35.226Z,100.00
2023-02-12T06:12:02.112Z,100.00
2023-02-12T06:14:31.799Z,100.00
2023-02-12T06:16:59.034Z,100.00
2023-02-12T06:19:26.359Z,100.00
2023-02-12T06:21:55.413Z,100.00
2023-02-12T06:24:22.739Z,100.00
2023-02-12T06:26:50.956Z,100.00
2023-02-12T06:29:18.841Z,100.00
2023-02-12T06:31:45.914Z,100.00
2023-02-12T06:34:13.847Z,100.00
2023-02-12T06:36:41.935Z,100.00
2023-02-12T06:39:09.159Z,100.00
2023-02-12T06:41:36.141Z,100.00
2023-02-12T06:44:03.727Z,100.00
2023-02-12T06:46:31.031Z,100.00
2023-02-12T06:48:59.267Z,100.00
2023-02-12T06:51:27.221Z,100.00
2023-02-12T06:53:55.676Z,100.00
2023-02-12T06:56:24.005Z,100.00
2023-02-12T06:58:55.835Z,100.00
2023-02-12T07:01:24.646Z,100.00
2023-02-12T07:03:53.364Z,100.00
2023-02-12T07:06:20.879Z,100.00
2023-02-12T07:08:48.531Z,100.00
2023-02-12T07:11:15.448Z,100.00
2023-02-12T07:13:42.778Z,100.00
2023-02-12T07:16:14.069Z,100.00
2023-02-12T07:18:44.353Z,100.00
2023-02-12T07:21:12.033Z,100.00
2023-02-12T07:23:39.616Z,100.00
2023-02-12T07:26:07.879Z,100.00
2023-02-12T07:28:35.340Z,100.00
2023-02-12T07:31:11.286Z,100.00
2023-02-12T07:33:39.269Z,100.00
2023-02-12T07:36:07.807Z,100.00
2023-02-12T07:38:40.020Z,100.00
2023-02-12T07:41:10.532Z,100.00
2023-02-12T07:43:38.634Z,100.00
2023-02-12T07:46:08.102Z,100.00
2023-02-12T07:48:35.393Z,100.00
2023-02-12T07:51:10.124Z,100.00
2023-02-12T07:53:40.196Z,100.00
2023-02-12T07:56:11.629Z,100.00
2023-02-12T07:58:39.289Z,100.00
2023-02-12T08:01:12.293Z,100.00
2023-02-12T08:03:39.636Z,100.00
2023-02-12T08:06:10.838Z,100.00
2023-02-12T08:08:39.029Z,100.00
2023-02-12T08:11:07.677Z,100.00
2023-02-12T08:13:35.535Z,100.00
2023-02-12T08:16:03.672Z,100.00
2023-02-12T08:18:32.174Z,100.00
2023-02-12T08:21:05.776Z,100.00
2023-02-12T08:23:33.334Z,100.00
2023-02-12T08:26:13.774Z,100.00
2023-02-12T08:28:46.523Z,100.00
2023-02-12T08:31:15.059Z,100.00
2023-02-12T08:33:42.407Z,100.00
2023-02-12T08:36:10.603Z,100.00
2023-02-12T08:38:40.419Z,100.00
2023-02-12T08:41:08.837Z,100.00
2023-02-12T08:43:39.521Z,100.00
2023-02-12T08:46:09.572Z,100.00
2023-02-12T08:48:36.984Z,100.00
2023-02-12T08:51:24.349Z,100.00
2023-02-12T08:53:53.011Z,100.00
2023-02-12T08:56:20.060Z,100.00
2023-02-12T08:58:47.301Z,100.00
2023-02-12T09:01:16.257Z,100.00
2023-02-12T09:03:43.946Z,100.00
2023-02-12T09:06:11.003Z,100.00
2023-02-12T09:08:38.861Z,100.00
2023-02-12T09:11:16.723Z,100.00
2023-02-12T09:13:45.276Z,100.00
2023-02-12T09:16:12.715Z,100.00
2023-02-12T09:18:40.304Z,100.00
2023-02-12T09:21:12.143Z,100.00
2023-02-12T09:23:39.732Z,100.00
2023-02-12T09:26:07.577Z,100.00
2023-02-12T09:28:35.337Z,100.00
2023-02-12T09:31:09.543Z,100.00
2023-02-12T09:33:37.030Z,100.00
2023-02-12T09:36:04.727Z,100.00
2023-02-12T09:38:32.638Z,100.00
2023-02-12T09:41:09.117Z,100.00
2023-02-12T09:43:36.308Z,100.00
2023-02-12T09:46:29.178Z,100.00
2023-02-12T09:49:04.647Z,100.00
2023-02-12T09:51:32.258Z,100.00
2023-02-12T09:54:13.401Z,100.00
2023-02-12T09:56:42.549Z,100.00
2023-02-12T09:59:13.295Z,100.00
2023-02-12T10:01:40.829Z,100.00
2023-02-12T10:04:08.440Z,100.00
2023-02-12T10:06:44.129Z,100.00
2023-02-12T10:09:21.007Z,100.00
2023-02-12T10:11:54.841Z,100.00
2023-02-12T10:14:51.584Z,100.00
2023-02-12T10:17:23.739Z,100.00
2023-02-12T10:20:01.159Z,100.00
2023-02-12T10:22:56.809Z,100.00
2023-02-12T10:25:31.773Z,100.00
2023-02-12T10:28:02.443Z,100.00
2023-02-12T10:30:53.076Z,100.00
2023-02-12T10:33:26.870Z,100.00
2023-02-12T10:36:02.796Z,100.00
2023-02-12T10:38:33.803Z,100.00
2023-02-12T10:41:02.850Z,100.00
2023-02-12T10:43:30.806Z,100.00
2023-02-12T10:45:58.643Z,100.00
2023-02-12T10:48:46.207Z,100.00
2023-02-12T10:51:34.178Z,100.00
2023-02-12T10:54:21.471Z,100.00
2023-02-12T10:56:49.875Z,100.00
2023-02-12T10:59:24.208Z,100.00
2023-02-12T11:01:52.116Z,100.00
2023-02-12T11:04:21.357Z,100.00
2023-02-12T11:06:58.375Z,100.00
2023-02-12T11:09:30.312Z,100.00
2023-02-12T11:12:02.373Z,100.00
2023-02-12T11:14:30.986Z,100.00
2023-02-12T11:17:00.656Z,100.00
2023-02-12T11:19:30.799Z,100.00
2023-02-12T11:22:11.278Z,100.00
2023-02-12T11:24:38.755Z,100.00
2023-02-12T11:27:18.358Z,95.62
2023-02-12T11:29:49.791Z,92.10
2023-02-12T11:32:19.352Z,90.35
2023-02-12T11:35:06.843Z,91.07
2023-02-12T11:37:38.343Z,91.93
2023-02-12T11:40:07.530Z,92.76
2023-02-12T11:42:37.581Z,92.44
2023-02-12T11:45:07.475Z,92.85
2023-02-12T11:47:36.847Z,88.16
2023-02-12T11:50:12.833Z,86.70
2023-02-12T11:52:43.437Z,88.21
2023-02-12T11:55:20.343Z,89.49
2023-02-12T11:57:50.136Z,90.78
2023-02-12T12:00:18.431Z,95.45
2023-02-12T12:03:10.025Z,99.67
2023-02-12T12:05:39.734Z,100.00
2023-02-12T12:08:20.970Z,100.00
2023-02-12T12:10:51.760Z,100.00
2023-02-12T12:13:26.022Z,100.00
2023-02-12T12:16:19.214Z,100.00
2023-02-12T12:19:15.490Z,100.00
2023-02-12T12:21:42.764Z,100.00
2023-02-12T12:24:11.207Z,98.21
2023-02-12T12:26:40.587Z,100.00
2023-02-12T12:29:18.665Z,99.52
2023-02-12T12:31:56.948Z,100.00
2023-02-12T12:34:28.389Z,100.00
2023-02-12T12:36:56.951Z,100.00
2023-02-12T12:39:43.563Z,100.00
2023-02-12T12:42:13.918Z,100.00
2023-02-12T12:44:55.122Z,100.00
2023-02-12T12:47:55.801Z,100.00
2023-02-12T12:50:26.745Z,100.00
2023-02-12T12:53:00.273Z,100.00
2023-02-12T12:55:46.616Z,95.42
2023-02-12T12:58:26.080Z,90.90
2023-02-12T13:01:13.283Z,90.43
2023-02-12T13:03:44.157Z,90.14
2023-02-12T13:06:27.473Z,87.84
2023-02-12T13:09:04.151Z,87.71
2023-02-12T13:11:39.459Z,87.45
2023-02-12T13:14:29.170Z,88.42
2023-02-12T13:17:08.916Z,89.17
2023-02-12T13:19:36.351Z,86.84
2023-02-12T13:22:09.171Z,86.29
2023-02-12T13:24:44.326Z,89.02
2023-02-12T13:27:15.212Z,98.48
2023-02-12T13:29:50.184Z,100.00
2023-02-12T13:32:27.835Z,100.00
2023-02-12T13:34:57.886Z,100.00
2023-02-12T13:37:35.667Z,100.00
2023-02-12T13:40:07.730Z,100.00
2023-02-12T13:42:51.270Z,100.00
2023-02-12T13:45:18.868Z,100.00
2023-02-12T13:48:05.915Z,100.00
2023-02-12T13:50:38.287Z,100.00
2023-02-12T13:53:14.238Z,100.00
2023-02-12T13:55:50.095Z,100.00
2023-02-12T13:58:39.619Z,100.00
2023-02-12T14:01:18.917Z,100.00
2023-02-12T14:03:50.309Z,100.00
2023-02-12T14:06:20.764Z,100.00
2023-02-12T14:08:51.677Z,100.00
2023-02-12T14:11:21.841Z,100.00
2023-02-12T14:14:00.808Z,100.00
2023-02-12T14:16:31.525Z,100.00
2023-02-12T14:19:30.092Z,100.00
2023-02-12T14:21:58.348Z,100.00
2023-02-12T14:24:37.885Z,100.00
2023-02-12T14:27:27.511Z,100.00
2023-02-12T14:30:07.680Z,100.00
2023-02-12T14:32:59.601Z,100.00
2023-02-12T14:35:48.586Z,100.00
2023-02-12T14:38:16.132Z,100.00
2023-02-12T14:40:48.606Z,100.00
2023-02-12T14:43:34.284Z,100.00
2023-02-12T14:46:21.902Z,100.00
2023-02-12T14:48:52.393Z,100.00
2023-02-12T14:51:23.506Z,100.00
2023-02-12T14:53:54.051Z,100.00
2023-02-12T14:56:25.810Z,100.00
2023-02-12T14:58:55.267Z,100.00
2023-02-12T15:01:44.149Z,100.00
2023-02-12T15:04:17.154Z,100.00
2023-02-12T15:06:51.162Z,100.00
2023-02-12T15:09:35.500Z,100.00
2023-02-12T15:12:23.538Z,100.00
2023-02-12T15:14:57.051Z,100.00
2023-02-12T15:17:28.596Z,100.00
2023-02-12T15:20:01.550Z,100.00
2023-02-12T15:22:37.051Z,100.00
2023-02-12T15:25:23.365Z,100.00
2023-02-12T15:27:56.522Z,100.00
2023-02-12T15:30:28.945Z,100.00
2023-02-12T15:33:03.024Z,100.00
2023-02-12T15:35:34.264Z,100.00
2023-02-12T15:38:03.254Z,100.00
2023-02-12T15:40:32.250Z,100.00
2023-02-12T15:43:02.272Z,100.00
2023-02-12T15:45:31.677Z,100.00
2023-02-12T15:48:22.915Z,100.00
2023-02-12T15:50:56.310Z,100.00
2023-02-12T15:53:25.314Z,100.00
2023-02-12T15:55:52.997Z,100.00
2023-02-12T15:58:30.255Z,100.00
2023-02-12T16:01:04.460Z,100.00
2023-02-12T16:03:38.601Z,100.00
2023-02-12T16:06:17.398Z,100.00
2023-02-12T16:08:53.774Z,100.00
2023-02-12T16:11:22.489Z,100.00
2023-02-12T16:13:52.497Z,100.00
2023-02-12T16:16:23.694Z,100.00
2023-02-12T16:19:14.564Z,100.00
2023-02-12T16:21:45.151Z,100.00
2023-02-12T16:24:23.358Z,100.00
2023-02-12T16:26:51.332Z,100.00
2023-02-12T16:29:19.405Z,100.00
2023-02-12T16:31:54.210Z,100.00
2023-02-12T16:34:35.006Z,100.00
2023-02-12T16:37:23.891Z,100.00
2023-02-12T16:39:55.357Z,100.00
2023-02-12T16:42:27.783Z,100.00
2023-02-12T16:44:59.151Z,100.00
2023-02-12T16:47:28.857Z,100.00
2023-02-12T16:50:02.829Z,100.00
2023-02-12T16:52:35.279Z,100.00
2023-02-12T16:55:03.424Z,100.00
2023-02-12T16:57:34.807Z,100.00
2023-02-12T17:00:05.714Z,100.00
2023-02-12T17:02:34.527Z,100.00
2023-02-12T17:05:06.259Z,100.00
2023-02-12T17:07:34.851Z,100.00
2023-02-12T17:10:03.554Z,100.00
2023-02-12T17:12:33.521Z,100.00
2023-02-12T17:15:04.233Z,100.00
2023-02-12T17:17:32.714Z,100.00
2023-02-12T17:20:01.624Z,100.00
2023-02-12T17:22:37.857Z,100.00
2023-02-12T17:25:05.966Z,100.00
2023-02-12T17:27:33.503Z,100.00
2023-02-12T17:30:02.289Z,100.00
2023-02-12T17:32:31.563Z,100.00
2023-02-12T17:34:59.980Z,100.00
2023-02-12T17:37:30.209Z,100.00
2023-02-12T17:39:58.305Z,100.00
2023-02-12T17:42:27.782Z,100.00
2023-02-12T17:44:57.508Z,100.00
2023-02-12T17:47:26.057Z,100.00
2023-02-12T17:49:57.892Z,100.00
2023-02-12T17:52:26.032Z,100.00
2023-02-12T17:54:56.766Z,100.00
2023-02-12T17:57:25.411Z,100.00
2023-02-12T17:59:59.269Z,100.00
2023-02-12T18:02:32.800Z,100.00
2023-02-12T18:05:02.177Z,100.00
2023-02-12T18:07:32.823Z,100.00
2023-02-12T18:10:05.972Z,100.00
2023-02-12T18:12:34.932Z,100.00
2023-02-12T18:15:08.473Z,100.00
2023-02-12T18:17:37.306Z,100.00
2023-02-12T18:20:05.886Z,100.00
2023-02-12T18:22:35.864Z,100.00
2023-02-12T18:25:04.721Z,100.00
2023-02-12T18:27:33.588Z,100.00
2023-02-12T18:30:03.406Z,100.00
2023-02-12T18:32:31.589Z,100.00
2023-02-12T18:34:59.728Z,100.00
2023-02-12T18:37:33.576Z,100.00
2023-02-12T18:40:03.097Z,100.00
2023-02-12T18:42:33.321Z,100.00
2023-02-12T18:45:03.044Z,100.00
2023-02-12T18:47:31.327Z,100.00
2023-02-12T18:50:03.306Z,100.00
2023-02-12T18:52:32.623Z,100.00
2023-02-12T18:55:01.110Z,100.00
2023-02-12T18:57:30.330Z,100.00
2023-02-12T19:00:01.605Z,100.00
2023-02-12T19:02:30.442Z,100.00
2023-02-12T19:04:58.899Z,100.00
2023-02-12T19:07:28.162Z,100.00
2023-02-12T19:09:57.727Z,100.00
2023-02-12T19:12:27.361Z,100.00
2023-02-12T19:14:55.757Z,100.00
2023-02-12T19:17:23.989Z,100.00
2023-02-12T19:19:53.935Z,100.00
2023-02-12T19:22:22.189Z,100.00
2023-02-12T19:24:51.944Z,100.00
2023-02-12T19:27:19.977Z,100.00
2023-02-12T19:29:48.629Z,100.00
2023-02-12T19:32:17.857Z,100.00
2023-02-12T19:34:46.868Z,100.00
2023-02-12T19:37:20.372Z,100.00
2023-02-12T19:39:48.754Z,100.00
2023-02-12T19:42:18.182Z,100.00
2023-02-12T19:44:54.221Z,100.00
2023-02-12T19:47:24.820Z,100.00
2023-02-12T19:49:55.753Z,100.00
2023-02-12T19:52:25.515Z,100.00
2023-02-12T19:54:56.718Z,100.00
2023-02-12T19:57:26.181Z,100.00
2023-02-12T19:59:56.106Z,100.00
2023-02-12T20:02:25.606Z,100.00
2023-02-12T20:04:54.302Z,100.00
2023-02-12T20:07:26.476Z,100.00
2023-02-12T20:09:55.186Z,100.00
2023-02-12T20:12:23.443Z,100.00
2023-02-12T20:14:57.263Z,100.00
2023-02-12T20:17:26.785Z,100.00
2023-02-12T20:19:57.733Z,100.00
2023-02-12T20:22:28.869Z,100.00
2023-02-12T20:24:57.782Z,100.00
2023-02-12T20:27:25.871Z,100.00
2023-02-12T20:29:59.967Z,100.00
2023-02-12T20:32:28.358Z,100.00
2023-02-12T20:34:57.450Z,100.00
2023-02-12T20:37:26.640Z,100.00
2023-02-12T20:39:55.115Z,100.00
2023-02-12T20:42:31.611Z,100.00
2023-02-12T20:45:01.828Z,100.00
2023-02-12T20:47:29.883Z,100.00
2023-02-12T20:49:58.590Z,100.00
2023-02-12T20:52:29.139Z,100.00
2023-02-12T20:54:59.429Z,100.00
2023-02-12T20:57:32.034Z,100.00
2023-02-12T21:00:06.155Z,100.00
2023-02-12T21:02:35.407Z,100.00
2023-02-12T21:05:03.823Z,100.00
2023-02-12T21:07:34.833Z,100.00
2023-02-12T21:10:06.401Z,100.00
2023-02-12T21:12:36.835Z,100.00
2023-02-12T21:15:05.550Z,100.00
2023-02-12T21:17:34.207Z,100.00
2023-02-12T21:20:04.887Z,100.00
2023-02-12T21:22:32.840Z,100.00
2023-02-12T21:25:04.083Z,100.00
2023-02-12T21:27:31.796Z,100.00
2023-02-12T21:29:59.863Z,100.00
2023-02-12T21:32:31.194Z,100.00
2023-02-12T21:34:59.549Z,100.00
2023-02-12T21:37:27.449Z,100.00
2023-02-12T21:39:55.112Z,100.00
2023-02-12T21:42:22.666Z,100.00
2023-02-12T21:44:50.732Z,100.00
2023-02-12T21:47:17.998Z,100.00
2023-02-12T21:49:45.687Z,100.00
2023-02-12T21:52:15.232Z,100.00
2023-02-12T21:54:45.185Z,100.00
2023-02-12T21:57:18.303Z,100.00
2023-02-12T21:59:46.147Z,100.00
2023-02-12T22:02:13.336Z,100.00
2023-02-12T22:04:40.785Z,100.00
2023-02-12T22:07:08.286Z,100.00
2023-02-12T22:09:35.726Z,100.00
2023-02-12T22:12:02.578Z,100.00
2023-02-12T22:14:29.908Z,100.00
2023-02-12T22:16:56.892Z,100.00
2023-02-12T22:19:24.526Z,100.00
2023-02-12T22:21:51.918Z,100.00
2023-02-12T22:24:19.798Z,100.00
2023-02-12T22:26:46.706Z,100.00
2023-02-12T22:29:14.990Z,100.00
2023-02-12T22:31:43.104Z,100.00
2023-02-12T22:34:12.459Z,100.00
2023-02-12T22:36:39.937Z,100.00
2023-02-12T22:39:10.058Z,100.00
2023-02-12T22:41:37.974Z,100.00
2023-02-12T22:44:05.528Z,100.00
2023-02-12T22:46:33.231Z,100.00
2023-02-12T22:49:00.491Z,100.00
2023-02-12T22:51:29.159Z,100.00
2023-02-12T22:53:56.610Z,100.00
2023-02-12T22:56:24.142Z,100.00
2023-02-12T22:58:55.807Z,100.00
2023-02-12T23:01:23.606Z,100.00
2023-02-12T23:03:51.613Z,100.00
2023-02-12T23:06:19.535Z,100.00
2023-02-12T23:08:49.458Z,100.00
2023-02-12T23:11:16.786Z,100.00
2023-02-12T23:13:44.195Z,100.00
2023-02-12T23:16:13.502Z,100.00
2023-02-12T23:18:40.949Z,100.00
2023-02-12T23:21:08.440Z,100.00
2023-02-12T23:23:35.849Z,100.00
2023-02-12T23:26:02.808Z,100.00
2023-02-12T23:28:30.371Z,100.00
2023-02-12T23:30:58.139Z,100.00
2023-02-12T23:33:25.718Z,100.00
2023-02-12T23:35:52.613Z,100.00
2023-02-12T23:38:19.946Z,100.00
2023-02-12T23:40:49.148Z,100.00
2023-02-12T23:43:21.564Z,100.00
2023-02-12T23:45:48.809Z,100.00
2023-02-12T23:48:16.077Z,100.00
2023-02-12T23:50:45.336Z,100.00
2023-02-12T23:53:12.701Z,100.00
2023-02-12T23:55:40.018Z,100.00
2023-02-12T23:58:07.719Z,100.00
